sensor_id;sensor_type;location;lat;lon;timestamp;pressure;altitude;pressure_sealevel;temperature;humidity
76762;BME280;65705;51.032;13.790;2023-03-13T00:00:55;99640.38;;;8.95;71.23
76762;BME280;65705;51.032;13.790;2023-03-13T00:03:22;99637.94;;;8.94;71.10
76762;BME280;65705;51.032;13.790;2023-03-13T00:05:48;99640.56;;;8.94;71.11
76762;BME280;65705;51.032;13.790;2023-03-13T00:08:13;99643.00;;;8.95;71.14
76762;BME280;65705;51.032;13.790;2023-03-13T00:10:40;99638.28;;;8.99;71.02
76762;BME280;65705;51.032;13.790;2023-03-13T00:13:07;99643.50;;;8.99;71.04
76762;BME280;65705;51.032;13.790;2023-03-13T00:15:33;99630.75;;;8.96;71.12
76762;BME280;65705;51.032;13.790;2023-03-13T00:18:00;99639.09;;;8.99;70.87
76762;BME280;65705;51.032;13.790;2023-03-13T00:20:26;99637.44;;;8.98;70.85
76762;BME280;65705;51.032;13.790;2023-03-13T00:22:51;99634.16;;;8.96;71.26
76762;BME280;65705;51.032;13.790;2023-03-13T00:25:17;99632.91;;;9.08;70.69
76762;BME280;65705;51.032;13.790;2023-03-13T00:27:43;99634.84;;;9.06;70.63
76762;BME280;65705;51.032;13.790;2023-03-13T00:30:10;99633.19;;;9.05;70.34
76762;BME280;65705;51.032;13.790;2023-03-13T00:32:40;99634.69;;;9.08;70.32
76762;BME280;65705;51.032;13.790;2023-03-13T00:35:06;99632.75;;;9.10;70.30
76762;BME280;65705;51.032;13.790;2023-03-13T00:37:32;99637.16;;;9.09;70.28
76762;BME280;65705;51.032;13.790;2023-03-13T00:39:58;99634.22;;;9.12;70.15
76762;BME280;65705;51.032;13.790;2023-03-13T00:42:24;99641.25;;;9.12;70.10
76762;BME280;65705;51.032;13.790;2023-03-13T00:44:49;99639.97;;;9.16;69.85
76762;BME280;65705;51.032;13.790;2023-03-13T00:47:15;99639.13;;;9.15;69.79
76762;BME280;65705;51.032;13.790;2023-03-13T00:49:42;99644.53;;;9.22;69.51
76762;BME280;65705;51.032;13.790;2023-03-13T00:52:07;99645.53;;;9.21;69.40
76762;BME280;65705;51.032;13.790;2023-03-13T00:54:33;99641.75;;;9.23;69.41
76762;BME280;65705;51.032;13.790;2023-03-13T00:56:59;99637.34;;;9.24;69.31
76762;BME280;65705;51.032;13.790;2023-03-13T00:59:24;99639.78;;;9.25;69.06
76762;BME280;65705;51.032;13.790;2023-03-13T01:01:50;99634.38;;;9.27;69.09
76762;BME280;65705;51.032;13.790;2023-03-13T01:04:16;99632.44;;;9.29;68.94
76762;BME280;65705;51.032;13.790;2023-03-13T01:06:42;99633.25;;;9.29;68.79
76762;BME280;65705;51.032;13.790;2023-03-13T01:09:10;99630.81;;;9.28;69.03
76762;BME280;65705;51.032;13.790;2023-03-13T01:11:38;99625.41;;;9.29;68.82
76762;BME280;65705;51.032;13.790;2023-03-13T01:14:14;99616.88;;;9.27;68.79
76762;BME280;65705;51.032;13.790;2023-03-13T01:16:40;99607.91;;;9.30;68.52
76762;BME280;65705;51.032;13.790;2023-03-13T01:19:12;99612.31;;;9.29;68.63
76762;BME280;65705;51.032;13.790;2023-03-13T01:21:39;99602.66;;;9.30;68.66
76762;BME280;65705;51.032;13.790;2023-03-13T01:24:06;99607.72;;;9.31;68.31
76762;BME280;65705;51.032;13.790;2023-03-13T01:26:32;99599.88;;;9.31;68.12
76762;BME280;65705;51.032;13.790;2023-03-13T01:28:58;99600.03;;;9.30;68.12
76762;BME280;65705;51.032;13.790;2023-03-13T01:31:29;99603.47;;;9.30;68.39
76762;BME280;65705;51.032;13.790;2023-03-13T01:34:00;99592.00;;;9.31;68.18
76762;BME280;65705;51.032;13.790;2023-03-13T01:36:26;99593.47;;;9.34;67.91
76762;BME280;65705;51.032;13.790;2023-03-13T01:38:55;99591.69;;;9.34;67.75
76762;BME280;65705;51.032;13.790;2023-03-13T01:41:22;99593.97;;;9.29;67.92
76762;BME280;65705;51.032;13.790;2023-03-13T01:43:48;99591.19;;;9.31;67.91
76762;BME280;65705;51.032;13.790;2023-03-13T01:46:22;99583.00;;;9.26;68.08
76762;BME280;65705;51.032;13.790;2023-03-13T01:54:21;99578.59;;;9.26;67.69
76762;BME280;65705;51.032;13.790;2023-03-13T01:56:50;99581.38;;;9.25;67.56
76762;BME280;65705;51.032;13.790;2023-03-13T01:59:33;99576.16;;;9.25;67.37
76762;BME280;65705;51.032;13.790;2023-03-13T02:02:04;99574.50;;;9.24;67.62
76762;BME280;65705;51.032;13.790;2023-03-13T02:04:37;99572.53;;;9.26;67.42
76762;BME280;65705;51.032;13.790;2023-03-13T02:07:09;99566.97;;;9.21;67.54
76762;BME280;65705;51.032;13.790;2023-03-13T02:09:38;99560.91;;;9.20;67.39
76762;BME280;65705;51.032;13.790;2023-03-13T02:12:18;99560.41;;;9.17;67.60
76762;BME280;65705;51.032;13.790;2023-03-13T02:14:48;99556.31;;;9.14;67.72
76762;BME280;65705;51.032;13.790;2023-03-13T02:17:15;99553.06;;;9.12;67.85
76762;BME280;65705;51.032;13.790;2023-03-13T02:27:45;99537.03;;;8.99;68.07
76762;BME280;65705;51.032;13.790;2023-03-13T02:30:14;99545.03;;;8.98;68.21
76762;BME280;65705;51.032;13.790;2023-03-13T02:32:40;99550.41;;;8.96;68.23
76762;BME280;65705;51.032;13.790;2023-03-13T02:35:10;99546.19;;;8.95;68.31
76762;BME280;65705;51.032;13.790;2023-03-13T02:37:38;99544.84;;;8.91;68.37
76762;BME280;65705;51.032;13.790;2023-03-13T02:40:09;99535.22;;;8.92;68.45
76762;BME280;65705;51.032;13.790;2023-03-13T02:42:37;99546.00;;;8.89;68.56
76762;BME280;65705;51.032;13.790;2023-03-13T02:45:04;99538.50;;;8.94;68.55
76762;BME280;65705;51.032;13.790;2023-03-13T02:47:30;99542.22;;;8.91;68.46
76762;BME280;65705;51.032;13.790;2023-03-13T02:49:56;99535.03;;;8.93;68.53
76762;BME280;65705;51.032;13.790;2023-03-13T02:52:25;99533.91;;;8.96;68.77
76762;BME280;65705;51.032;13.790;2023-03-13T02:54:58;99531.47;;;8.94;68.76
76762;BME280;65705;51.032;13.790;2023-03-13T02:57:25;99537.31;;;8.96;68.55
76762;BME280;65705;51.032;13.790;2023-03-13T02:59:51;99538.00;;;8.98;68.73
76762;BME280;65705;51.032;13.790;2023-03-13T03:02:17;99530.78;;;9.00;68.86
76762;BME280;65705;51.032;13.790;2023-03-13T03:04:43;99539.97;;;9.04;68.52
76762;BME280;65705;51.032;13.790;2023-03-13T03:07:10;99538.84;;;9.07;68.50
76762;BME280;65705;51.032;13.790;2023-03-13T03:09:36;99533.44;;;9.08;68.60
76762;BME280;65705;51.032;13.790;2023-03-13T03:12:07;99532.94;;;9.13;68.51
76762;BME280;65705;51.032;13.790;2023-03-13T03:14:33;99533.41;;;9.16;68.08
76762;BME280;65705;51.032;13.790;2023-03-13T03:16:59;99535.72;;;9.19;68.13
76762;BME280;65705;51.032;13.790;2023-03-13T03:19:26;99530.97;;;9.23;68.11
76762;BME280;65705;51.032;13.790;2023-03-13T03:21:51;99516.25;;;9.22;68.20
76762;BME280;65705;51.032;13.790;2023-03-13T03:24:18;99521.47;;;9.22;68.09
76762;BME280;65705;51.032;13.790;2023-03-13T03:26:44;99515.28;;;9.23;68.04
76762;BME280;65705;51.032;13.790;2023-03-13T03:29:17;99518.19;;;9.20;68.20
76762;BME280;65705;51.032;13.790;2023-03-13T03:31:46;99515.09;;;9.16;68.23
76762;BME280;65705;51.032;13.790;2023-03-13T03:34:12;99512.78;;;9.21;67.89
76762;BME280;65705;51.032;13.790;2023-03-13T03:36:38;99505.28;;;9.18;68.03
76762;BME280;65705;51.032;13.790;2023-03-13T03:39:04;99502.66;;;9.18;67.83
76762;BME280;65705;51.032;13.790;2023-03-13T03:41:31;99492.66;;;9.22;67.72
76762;BME280;65705;51.032;13.790;2023-03-13T03:43:57;99491.53;;;9.24;67.77
76762;BME280;65705;51.032;13.790;2023-03-13T03:46:28;99484.50;;;9.25;67.80
76762;BME280;65705;51.032;13.790;2023-03-13T03:48:55;99481.38;;;9.21;67.73
76762;BME280;65705;51.032;13.790;2023-03-13T03:51:21;99478.44;;;9.24;67.71
76762;BME280;65705;51.032;13.790;2023-03-13T03:53:47;99480.72;;;9.27;67.55
76762;BME280;65705;51.032;13.790;2023-03-13T03:56:13;99473.53;;;9.29;67.59
76762;BME280;65705;51.032;13.790;2023-03-13T03:58:45;99470.91;;;9.29;67.66
76762;BME280;65705;51.032;13.790;2023-03-13T04:01:23;99453.56;;;9.28;67.61
76762;BME280;65705;51.032;13.790;2023-03-13T04:03:49;99454.19;;;9.38;67.18
76762;BME280;65705;51.032;13.790;2023-03-13T04:06:15;99452.22;;;9.32;nan
76762;BME280;65705;51.032;13.790;2023-03-13T04:08:41;99449.63;;;9.32;67.33
76762;BME280;65705;51.032;13.790;2023-03-13T04:11:10;99446.03;;;9.33;67.53
76762;BME280;65705;51.032;13.790;2023-03-13T04:13:38;99440.13;;;9.31;67.39
76762;BME280;65705;51.032;13.790;2023-03-13T04:16:08;99429.66;;;9.31;67.27
76762;BME280;65705;51.032;13.790;2023-03-13T04:18:35;99433.25;;;9.30;67.37
76762;BME280;65705;51.032;13.790;2023-03-13T04:21:02;99424.78;;;9.28;67.33
76762;BME280;65705;51.032;13.790;2023-03-13T04:23:32;99430.63;;;9.30;67.41
76762;BME280;65705;51.032;13.790;2023-03-13T04:25:58;99431.97;;;9.26;67.44
76762;BME280;65705;51.032;13.790;2023-03-13T04:28:24;99420.69;;;9.26;67.48
76762;BME280;65705;51.032;13.790;2023-03-13T04:30:49;99418.22;;;9.24;67.74
76762;BME280;65705;51.032;13.790;2023-03-13T04:33:28;99413.31;;;9.21;67.70
76762;BME280;65705;51.032;13.790;2023-03-13T04:36:06;99413.00;;;9.24;67.90
76762;BME280;65705;51.032;13.790;2023-03-13T04:38:47;99407.59;;;9.18;68.07
76762;BME280;65705;51.032;13.790;2023-03-13T04:41:36;99401.88;;;9.14;68.25
76762;BME280;65705;51.032;13.790;2023-03-13T04:44:10;99399.09;;;9.08;68.28
76762;BME280;65705;51.032;13.790;2023-03-13T04:46:36;99396.31;;;9.09;68.23
76762;BME280;65705;51.032;13.790;2023-03-13T04:49:10;99388.34;;;9.03;68.46
76762;BME280;65705;51.032;13.790;2023-03-13T04:52:02;99377.19;;;9.09;68.72
76762;BME280;65705;51.032;13.790;2023-03-13T04:54:51;99365.25;;;8.98;68.79
76762;BME280;65705;51.032;13.790;2023-03-13T04:57:39;99370.00;;;8.95;68.88
76762;BME280;65705;51.032;13.790;2023-03-13T05:00:17;99366.59;;;8.94;69.02
76762;BME280;65705;51.032;13.790;2023-03-13T05:03:02;99356.44;;;8.91;69.20
76762;BME280;65705;51.032;13.790;2023-03-13T05:05:48;99360.22;;;8.89;69.20
76762;BME280;65705;51.032;13.790;2023-03-13T05:08:33;99359.22;;;8.90;69.35
76762;BME280;65705;51.032;13.790;2023-03-13T05:11:26;99348.09;;;8.96;69.31
76762;BME280;65705;51.032;13.790;2023-03-13T05:14:08;99344.66;;;8.95;69.46
76762;BME280;65705;51.032;13.790;2023-03-13T05:16:56;99343.19;;;8.93;69.59
76762;BME280;65705;51.032;13.790;2023-03-13T05:19:40;99334.53;;;8.84;69.76
76762;BME280;65705;51.032;13.790;2023-03-13T05:22:24;99329.47;;;8.83;69.81
76762;BME280;65705;51.032;13.790;2023-03-13T05:25:13;99325.38;;;8.88;69.89
76762;BME280;65705;51.032;13.790;2023-03-13T05:28:05;99314.56;;;8.91;69.68
76762;BME280;65705;51.032;13.790;2023-03-13T05:30:52;99304.75;;;8.93;69.68
76762;BME280;65705;51.032;13.790;2023-03-13T05:33:35;99294.59;;;8.98;69.17
76762;BME280;65705;51.032;13.790;2023-03-13T05:36:10;99295.25;;;9.00;68.91
76762;BME280;65705;51.032;13.790;2023-03-13T05:38:42;99300.66;;;8.99;68.85
76762;BME280;65705;51.032;13.790;2023-03-13T05:41:19;99299.34;;;8.95;69.09
76762;BME280;65705;51.032;13.790;2023-03-13T05:44:15;99291.19;;;8.90;69.25
76762;BME280;65705;51.032;13.790;2023-03-13T05:46:59;99288.28;;;8.85;69.62
76762;BME280;65705;51.032;13.790;2023-03-13T05:49:40;99293.34;;;8.86;69.56
76762;BME280;65705;51.032;13.790;2023-03-13T05:52:24;99290.06;;;8.92;69.48
76762;BME280;65705;51.032;13.790;2023-03-13T05:55:11;99275.31;;;8.91;69.74
76762;BME280;65705;51.032;13.790;2023-03-13T05:57:59;99269.28;;;8.91;69.84
76762;BME280;65705;51.032;13.790;2023-03-13T06:00:42;99259.31;;;8.94;69.58
76762;BME280;65705;51.032;13.790;2023-03-13T06:03:37;99261.94;;;8.94;69.79
76762;BME280;65705;51.032;13.790;2023-03-13T06:06:03;99264.19;;;8.97;69.67
76762;BME280;65705;51.032;13.790;2023-03-13T06:08:34;99254.56;;;8.98;69.63
76762;BME280;65705;51.032;13.790;2023-03-13T06:11:01;99249.16;;;8.99;69.55
76762;BME280;65705;51.032;13.790;2023-03-13T06:13:27;99247.34;;;9.00;69.52
76762;BME280;65705;51.032;13.790;2023-03-13T06:15:57;99243.69;;;9.09;69.43
76762;BME280;65705;51.032;13.790;2023-03-13T06:18:42;99234.69;;;9.11;69.42
76762;BME280;65705;51.032;13.790;2023-03-13T06:21:07;99234.81;;;9.18;69.10
76762;BME280;65705;51.032;13.790;2023-03-13T06:23:34;99234.47;;;9.21;69.18
76762;BME280;65705;51.032;13.790;2023-03-13T06:25:59;99247.19;;;9.32;68.83
76762;BME280;65705;51.032;13.790;2023-03-13T06:28:26;99239.16;;;9.33;68.62
76762;BME280;65705;51.032;13.790;2023-03-13T06:30:51;99229.16;;;9.37;68.59
76762;BME280;65705;51.032;13.790;2023-03-13T06:33:17;99224.69;;;9.45;68.41
76762;BME280;65705;51.032;13.790;2023-03-13T06:35:43;99212.72;;;9.43;68.52
76762;BME280;65705;51.032;13.790;2023-03-13T06:38:09;99206.72;;;9.42;68.64
76762;BME280;65705;51.032;13.790;2023-03-13T06:40:35;99202.72;;;9.46;68.42
76762;BME280;65705;51.032;13.790;2023-03-13T06:43:01;99199.78;;;9.49;68.47
76762;BME280;65705;51.032;13.790;2023-03-13T06:45:27;99200.06;;;9.54;68.51
76762;BME280;65705;51.032;13.790;2023-03-13T06:47:53;99190.47;;;9.70;68.03
76762;BME280;65705;51.032;13.790;2023-03-13T06:50:18;99196.22;;;9.65;68.11
76762;BME280;65705;51.032;13.790;2023-03-13T06:52:45;99192.13;;;9.63;68.16
76762;BME280;65705;51.032;13.790;2023-03-13T06:55:12;99186.44;;;9.59;67.90
76762;BME280;65705;51.032;13.790;2023-03-13T06:57:38;99184.28;;;9.63;67.48
76762;BME280;65705;51.032;13.790;2023-03-13T07:00:04;99177.72;;;9.67;67.55
76762;BME280;65705;51.032;13.790;2023-03-13T07:02:36;99181.88;;;9.76;67.36
76762;BME280;65705;51.032;13.790;2023-03-13T07:05:01;99185.34;;;9.76;67.66
76762;BME280;65705;51.032;13.790;2023-03-13T07:07:31;99187.25;;;9.82;67.35
76762;BME280;65705;51.032;13.790;2023-03-13T07:09:58;99184.91;;;9.87;67.57
76762;BME280;65705;51.032;13.790;2023-03-13T07:12:24;99188.19;;;9.89;67.79
76762;BME280;65705;51.032;13.790;2023-03-13T07:14:49;99177.53;;;9.91;67.67
76762;BME280;65705;51.032;13.790;2023-03-13T07:17:15;99184.66;;;9.97;67.66
76762;BME280;65705;51.032;13.790;2023-03-13T07:19:41;99171.09;;;9.93;67.56
76762;BME280;65705;51.032;13.790;2023-03-13T07:22:07;99168.41;;;10.01;67.45
76762;BME280;65705;51.032;13.790;2023-03-13T07:24:32;99162.13;;;10.10;67.06
76762;BME280;65705;51.032;13.790;2023-03-13T07:26:58;99158.84;;;10.08;66.95
76762;BME280;65705;51.032;13.790;2023-03-13T07:29:24;99146.84;;;10.14;67.14
76762;BME280;65705;51.032;13.790;2023-03-13T07:31:49;99150.13;;;10.16;67.31
76762;BME280;65705;51.032;13.790;2023-03-13T07:34:15;99143.59;;;10.12;67.90
76762;BME280;65705;51.032;13.790;2023-03-13T07:36:41;99136.19;;;10.15;68.34
76762;BME280;65705;51.032;13.790;2023-03-13T07:39:07;99134.19;;;10.17;68.63
76762;BME280;65705;51.032;13.790;2023-03-13T07:41:32;99123.16;;;10.22;69.50
76762;BME280;65705;51.032;13.790;2023-03-13T07:43:58;99120.19;;;10.25;70.26
76762;BME280;65705;51.032;13.790;2023-03-13T07:46:24;99120.00;;;10.26;71.59
76762;BME280;65705;51.032;13.790;2023-03-13T07:48:50;99122.25;;;10.29;71.77
76762;BME280;65705;51.032;13.790;2023-03-13T07:51:19;99116.22;;;10.29;72.70
76762;BME280;65705;51.032;13.790;2023-03-13T07:53:46;99112.84;;;10.35;72.83
76762;BME280;65705;51.032;13.790;2023-03-13T07:56:14;99102.16;;;10.36;72.86
76762;BME280;65705;51.032;13.790;2023-03-13T07:58:41;99096.59;;;10.39;73.05
76762;BME280;65705;51.032;13.790;2023-03-13T08:01:15;99093.13;;;10.53;72.38
76762;BME280;65705;51.032;13.790;2023-03-13T08:03:42;99084.59;;;10.66;72.03
76762;BME280;65705;51.032;13.790;2023-03-13T08:06:13;99083.53;;;10.60;72.33
76762;BME280;65705;51.032;13.790;2023-03-13T08:08:39;99085.78;;;10.49;73.55
76762;BME280;65705;51.032;13.790;2023-03-13T08:11:11;99067.44;;;10.34;74.47
76762;BME280;65705;51.032;13.790;2023-03-13T08:13:38;99089.63;;;10.32;74.24
76762;BME280;65705;51.032;13.790;2023-03-13T08:16:07;99099.03;;;10.26;74.98
76762;BME280;65705;51.032;13.790;2023-03-13T08:18:34;99098.38;;;10.24;75.26
76762;BME280;65705;51.032;13.790;2023-03-13T08:21:06;99110.03;;;10.22;75.46
76762;BME280;65705;51.032;13.790;2023-03-13T08:23:32;99120.72;;;10.35;75.05
76762;BME280;65705;51.032;13.790;2023-03-13T08:26:10;99123.59;;;10.25;74.91
76762;BME280;65705;51.032;13.790;2023-03-13T08:28:37;99112.78;;;10.28;75.40
76762;BME280;65705;51.032;13.790;2023-03-13T08:31:23;99122.69;;;10.18;74.98
76762;BME280;65705;51.032;13.790;2023-03-13T08:33:50;99131.56;;;10.17;75.66
76762;BME280;65705;51.032;13.790;2023-03-13T08:38:44;99128.03;;;10.10;75.67
76762;BME280;65705;51.032;13.790;2023-03-13T08:41:13;99131.94;;;10.14;75.51
76762;BME280;65705;51.032;13.790;2023-03-13T08:43:39;99132.09;;;10.13;75.02
76762;BME280;65705;51.032;13.790;2023-03-13T08:46:05;99133.63;;;10.22;74.66
76762;BME280;65705;51.032;13.790;2023-03-13T08:48:31;99135.47;;;10.21;74.74
76762;BME280;65705;51.032;13.790;2023-03-13T08:53:34;99139.63;;;10.30;75.04
76762;BME280;65705;51.032;13.790;2023-03-13T08:56:00;99122.38;;;10.36;74.51
76762;BME280;65705;51.032;13.790;2023-03-13T08:58:27;99126.97;;;10.34;74.14
76762;BME280;65705;51.032;13.790;2023-03-13T09:00:53;99130.31;;;10.42;73.59
76762;BME280;65705;51.032;13.790;2023-03-13T09:03:19;99116.47;;;10.48;73.76
76762;BME280;65705;51.032;13.790;2023-03-13T09:05:45;99103.69;;;10.60;72.72
76762;BME280;65705;51.032;13.790;2023-03-13T09:08:13;99095.88;;;10.67;72.66
76762;BME280;65705;51.032;13.790;2023-03-13T09:10:40;99075.25;;;10.78;72.66
76762;BME280;65705;51.032;13.790;2023-03-13T09:13:05;99077.94;;;10.85;72.44
76762;BME280;65705;51.032;13.790;2023-03-13T09:15:31;99081.44;;;10.92;71.83
76762;BME280;65705;51.032;13.790;2023-03-13T09:17:57;99081.09;;;10.95;71.48
76762;BME280;65705;51.032;13.790;2023-03-13T09:20:22;99077.25;;;10.97;71.40
76762;BME280;65705;51.032;13.790;2023-03-13T09:22:48;99076.53;;;11.03;71.43
76762;BME280;65705;51.032;13.790;2023-03-13T09:25:14;99074.34;;;11.07;70.92
76762;BME280;65705;51.032;13.790;2023-03-13T09:27:40;99071.22;;;11.18;70.46
76762;BME280;65705;51.032;13.790;2023-03-13T09:30:06;99087.03;;;11.24;70.23
76762;BME280;65705;51.032;13.790;2023-03-13T09:32:32;99086.66;;;11.27;70.38
76762;BME280;65705;51.032;13.790;2023-03-13T09:34:58;99085.66;;;11.28;70.44
76762;BME280;65705;51.032;13.790;2023-03-13T09:37:24;99098.59;;;11.30;70.19
76762;BME280;65705;51.032;13.790;2023-03-13T09:39:50;99083.84;;;11.29;70.51
76762;BME280;65705;51.032;13.790;2023-03-13T09:42:21;99091.16;;;11.33;70.98
76762;BME280;65705;51.032;13.790;2023-03-13T09:44:58;99104.28;;;11.33;72.11
76762;BME280;65705;51.032;13.790;2023-03-13T09:47:35;99110.06;;;11.43;72.45
76762;BME280;65705;51.032;13.790;2023-03-13T09:50:12;99096.09;;;11.43;73.05
76762;BME280;65705;51.032;13.790;2023-03-13T09:52:40;99090.44;;;11.46;73.12
76762;BME280;65705;51.032;13.790;2023-03-13T09:58:12;99074.69;;;11.67;73.40
76762;BME280;65705;51.032;13.790;2023-03-13T10:00:45;99068.28;;;11.76;73.71
76762;BME280;65705;51.032;13.790;2023-03-13T10:05:51;99058.03;;;11.81;73.45
76762;BME280;65705;51.032;13.790;2023-03-13T10:08:21;99057.63;;;11.84;73.29
76762;BME280;65705;51.032;13.790;2023-03-13T10:11:00;99057.44;;;11.86;73.34
76762;BME280;65705;51.032;13.790;2023-03-13T10:18:52;99045.63;;;12.03;72.29
76762;BME280;65705;51.032;13.790;2023-03-13T10:21:22;99047.69;;;12.14;72.47
76762;BME280;65705;51.032;13.790;2023-03-13T10:26:35;99050.50;;;12.12;72.44
76762;BME280;65705;51.032;13.790;2023-03-13T10:31:50;99048.56;;;12.27;72.02
76762;BME280;65705;51.032;13.790;2023-03-13T10:34:17;99041.09;;;12.37;71.14
76762;BME280;65705;51.032;13.790;2023-03-13T10:36:48;99039.72;;;12.48;71.47
76762;BME280;65705;51.032;13.790;2023-03-13T10:39:20;99043.44;;;12.60;70.64
76762;BME280;65705;51.032;13.790;2023-03-13T10:41:55;99034.38;;;12.76;70.57
76762;BME280;65705;51.032;13.790;2023-03-13T10:44:29;99035.81;;;12.85;69.75
76762;BME280;65705;51.032;13.790;2023-03-13T10:46:59;99031.56;;;12.90;68.91
76762;BME280;65705;51.032;13.790;2023-03-13T10:49:26;99027.53;;;13.01;68.55
76762;BME280;65705;51.032;13.790;2023-03-13T10:52:00;99041.53;;;13.01;68.70
76762;BME280;65705;51.032;13.790;2023-03-13T10:54:34;99038.06;;;12.94;68.75
76762;BME280;65705;51.032;13.790;2023-03-13T10:59:45;99045.94;;;12.88;69.60
76762;BME280;65705;51.032;13.790;2023-03-13T11:02:37;99026.09;;;12.92;69.51
76762;BME280;65705;51.032;13.790;2023-03-13T11:05:29;99020.28;;;13.03;69.18
76762;BME280;65705;51.032;13.790;2023-03-13T11:07:55;99027.16;;;13.23;68.95
76762;BME280;65705;51.032;13.790;2023-03-13T11:10:28;99033.84;;;13.32;68.88
76762;BME280;65705;51.032;13.790;2023-03-13T11:12:56;99028.59;;;13.45;68.29
76762;BME280;65705;51.032;13.790;2023-03-13T11:15:28;99026.97;;;13.57;67.97
76762;BME280;65705;51.032;13.790;2023-03-13T11:18:13;99029.16;;;13.73;67.37
76762;BME280;65705;51.032;13.790;2023-03-13T11:20:42;99030.56;;;13.96;66.53
76762;BME280;65705;51.032;13.790;2023-03-13T11:23:24;99019.56;;;14.12;65.76
76762;BME280;65705;51.032;13.790;2023-03-13T11:29:08;99039.63;;;14.13;66.65
76762;BME280;65705;51.032;13.790;2023-03-13T11:31:41;99031.09;;;14.11;66.78
76762;BME280;65705;51.032;13.790;2023-03-13T11:39:54;99024.84;;;13.99;66.56
76762;BME280;65705;51.032;13.790;2023-03-13T12:01:31;99035.44;;;13.92;66.39
76762;BME280;65705;51.032;13.790;2023-03-13T12:04:04;99037.06;;;13.87;66.75
76762;BME280;65705;51.032;13.790;2023-03-13T12:06:36;99025.69;;;13.86;66.56
76762;BME280;65705;51.032;13.790;2023-03-13T12:09:10;99009.66;;;13.88;66.31
76762;BME280;65705;51.032;13.790;2023-03-13T12:11:43;99019.63;;;13.86;66.13
76762;BME280;65705;51.032;13.790;2023-03-13T12:14:20;99012.94;;;13.83;66.36
76762;BME280;65705;51.032;13.790;2023-03-13T12:16:55;99014.38;;;13.86;66.64
76762;BME280;65705;51.032;13.790;2023-03-13T12:19:41;99004.22;;;13.89;66.50
76762;BME280;65705;51.032;13.790;2023-03-13T12:22:19;99004.19;;;13.96;66.15
76762;BME280;65705;51.032;13.790;2023-03-13T12:25:04;99010.03;;;14.04;65.89
76762;BME280;65705;51.032;13.790;2023-03-13T12:27:38;98981.81;;;14.05;66.30
76762;BME280;65705;51.032;13.790;2023-03-13T12:36:00;98956.31;;;14.43;65.41
76762;BME280;65705;51.032;13.790;2023-03-13T12:38:48;98965.78;;;14.50;64.74
76762;BME280;65705;51.032;13.790;2023-03-13T12:41:23;98957.44;;;14.60;64.27
76762;BME280;65705;51.032;13.790;2023-03-13T12:43:52;98948.59;;;14.72;64.05
76762;BME280;65705;51.032;13.790;2023-03-13T12:52:22;98931.16;;;14.96;62.95
76762;BME280;65705;51.032;13.790;2023-03-13T12:58:20;98925.88;;;15.21;62.52
76762;BME280;65705;51.032;13.790;2023-03-13T13:00:50;98931.91;;;15.28;62.15
76762;BME280;65705;51.032;13.790;2023-03-13T13:06:04;98936.44;;;15.45;61.40
76762;BME280;65705;51.032;13.790;2023-03-13T13:17:15;98919.78;;;15.81;60.13
76762;BME280;65705;51.032;13.790;2023-03-13T13:19:45;98925.13;;;15.93;59.83
76762;BME280;65705;51.032;13.790;2023-03-13T13:30:29;98903.84;;;16.17;58.99
76762;BME280;65705;51.032;13.790;2023-03-13T13:35:45;98882.50;;;16.30;58.57
76762;BME280;65705;51.032;13.790;2023-03-13T13:38:31;98880.78;;;16.36;58.77
76762;BME280;65705;51.032;13.790;2023-03-13T13:43:35;98874.41;;;16.55;58.90
76762;BME280;65705;51.032;13.790;2023-03-13T13:48:43;98849.25;;;16.46;59.04
76762;BME280;65705;51.032;13.790;2023-03-13T13:58:58;98878.91;;;16.25;58.98
76762;BME280;65705;51.032;13.790;2023-03-13T14:01:24;98874.66;;;16.24;58.52
76762;BME280;65705;51.032;13.790;2023-03-13T14:03:52;98877.84;;;16.14;58.69
76762;BME280;65705;51.032;13.790;2023-03-13T14:06:30;98885.72;;;16.03;58.99
76762;BME280;65705;51.032;13.790;2023-03-13T14:09:22;98886.75;;;16.02;59.11
76762;BME280;65705;51.032;13.790;2023-03-13T14:11:54;98891.56;;;15.93;59.15
76762;BME280;65705;51.032;13.790;2023-03-13T14:14:21;98900.72;;;15.91;59.52
76762;BME280;65705;51.032;13.790;2023-03-13T14:16:47;98891.91;;;15.97;59.28
76762;BME280;65705;51.032;13.790;2023-03-13T14:21:48;98890.13;;;16.09;59.30
76762;BME280;65705;51.032;13.790;2023-03-13T14:24:15;98880.13;;;16.11;58.92
76762;BME280;65705;51.032;13.790;2023-03-13T14:26:42;98876.44;;;16.12;58.82
76762;BME280;65705;51.032;13.790;2023-03-13T14:29:16;98874.81;;;16.11;59.07
76762;BME280;65705;51.032;13.790;2023-03-13T14:31:50;98861.47;;;16.06;58.72
76762;BME280;65705;51.032;13.790;2023-03-13T14:34:16;98857.66;;;16.02;58.90
76762;BME280;65705;51.032;13.790;2023-03-13T14:39:36;98852.81;;;15.99;59.28
76762;BME280;65705;51.032;13.790;2023-03-13T14:42:03;98845.66;;;15.99;59.21
76762;BME280;65705;51.032;13.790;2023-03-13T14:44:32;98839.94;;;16.02;58.73
76762;BME280;65705;51.032;13.790;2023-03-13T14:47:15;98840.66;;;16.09;58.89
76762;BME280;65705;51.032;13.790;2023-03-13T14:49:45;98837.44;;;16.19;58.81
76762;BME280;65705;51.032;13.790;2023-03-13T14:52:23;98838.97;;;16.26;58.27
76762;BME280;65705;51.032;13.790;2023-03-13T14:55:37;98843.38;;;16.32;58.19
76762;BME280;65705;51.032;13.790;2023-03-13T14:57:56;98848.56;;;16.39;58.04
76762;BME280;65705;51.032;13.790;2023-03-13T15:00:40;98844.34;;;16.49;58.07
76762;BME280;65705;51.032;13.790;2023-03-13T15:05:43;98838.47;;;16.47;57.79
76762;BME280;65705;51.032;13.790;2023-03-13T15:08:23;98835.31;;;16.39;58.11
76762;BME280;65705;51.032;13.790;2023-03-13T15:10:49;98830.13;;;16.32;58.44
76762;BME280;65705;51.032;13.790;2023-03-13T15:15:45;98826.41;;;16.22;59.06
76762;BME280;65705;51.032;13.790;2023-03-13T15:18:22;98825.81;;;16.20;58.92
76762;BME280;65705;51.032;13.790;2023-03-13T15:20:50;98821.44;;;16.14;59.00